sensor_id;sensor_type;location;lat;lon;timestamp;pressure;altitude;pressure_sealevel;temperature;humidity
52839;BME280;39219;53.678;9.856;2024-01-25T00:00:48;101848.56;;;5.87;83.60
52839;BME280;39219;53.678;9.856;2024-01-25T00:03:15;101854.72;;;5.80;83.58
52839;BME280;39219;53.678;9.856;2024-01-25T00:05:42;101849.44;;;5.84;84.01
52839;BME280;39219;53.678;9.856;2024-01-25T00:08:09;101867.13;;;5.73;83.76
52839;BME280;39219;53.678;9.856;2024-01-25T00:10:35;101861.81;;;5.75;83.84
52839;BME280;39219;53.678;9.856;2024-01-25T00:13:02;101853.91;;;5.75;83.66
52839;BME280;39219;53.678;9.856;2024-01-25T00:15:29;101860.13;;;5.66;83.98
52839;BME280;39219;53.678;9.856;2024-01-25T00:17:56;101867.13;;;5.73;84.14
52839;BME280;39219;53.678;9.856;2024-01-25T00:20:23;101863.56;;;5.77;84.36
52839;BME280;39219;53.678;9.856;2024-01-25T00:22:49;101849.50;;;5.72;84.32
52839;BME280;39219;53.678;9.856;2024-01-25T00:25:16;101854.72;;;5.80;84.00
52839;BME280;39219;53.678;9.856;2024-01-25T00:27:42;101849.41;;;5.81;84.40
52839;BME280;39219;53.678;9.856;2024-01-25T00:30:10;101845.94;;;5.79;84.02
52839;BME280;39219;53.678;9.856;2024-01-25T00:32:38;101851.22;;;5.79;84.13
52839;BME280;39219;53.678;9.856;2024-01-25T00:35:05;101837.16;;;5.76;84.20
52839;BME280;39219;53.678;9.856;2024-01-25T00:37:35;101837.13;;;5.80;84.36
52839;BME280;39219;53.678;9.856;2024-01-25T00:40:02;101833.59;;;5.81;84.22
52839;BME280;39219;53.678;9.856;2024-01-25T00:42:30;101849.44;;;5.80;83.99
52839;BME280;39219;53.678;9.856;2024-01-25T00:44:57;101831.84;;;5.83;84.07
52839;BME280;39219;53.678;9.856;2024-01-25T00:47:24;101859.13;;;5.81;84.26
52839;BME280;39219;53.678;9.856;2024-01-25T00:49:52;101862.63;;;5.86;84.14
52839;BME280;39219;53.678;9.856;2024-01-25T00:52:19;101861.75;;;5.85;84.09
52839;BME280;39219;53.678;9.856;2024-01-25T00:54:46;101855.56;;;5.88;83.82
52839;BME280;39219;53.678;9.856;2024-01-25T00:57:13;101844.97;;;5.94;83.90
52839;BME280;39219;53.678;9.856;2024-01-25T00:59:40;101857.31;;;5.90;83.72
52839;BME280;39219;53.678;9.856;2024-01-25T01:02:10;101861.78;;;5.79;83.78
52839;BME280;39219;53.678;9.856;2024-01-25T01:04:37;101856.50;;;5.78;84.10
52839;BME280;39219;53.678;9.856;2024-01-25T01:07:06;101871.53;;;5.68;84.07
52839;BME280;39219;53.678;9.856;2024-01-25T01:09:34;101865.38;;;5.68;84.46
52839;BME280;39219;53.678;9.856;2024-01-25T01:12:01;101868.00;;;5.68;84.22
52839;BME280;39219;53.678;9.856;2024-01-25T01:14:28;101866.28;;;5.64;84.27
52839;BME280;39219;53.678;9.856;2024-01-25T01:16:54;101862.75;;;5.66;84.35
52839;BME280;39219;53.678;9.856;2024-01-25T01:19:21;101863.59;;;5.70;84.45
52839;BME280;39219;53.678;9.856;2024-01-25T01:21:47;101868.88;;;5.70;84.24
52839;BME280;39219;53.678;9.856;2024-01-25T01:24:15;101865.38;;;5.69;84.58
52839;BME280;39219;53.678;9.856;2024-01-25T01:26:41;101875.06;;;5.69;84.20
52839;BME280;39219;53.678;9.856;2024-01-25T01:29:08;101868.94;;;5.62;84.22
52839;BME280;39219;53.678;9.856;2024-01-25T01:31:34;101885.63;;;5.66;84.35
52839;BME280;39219;53.678;9.856;2024-01-25T01:34:00;101883.88;;;5.66;84.37
52839;BME280;39219;53.678;9.856;2024-01-25T01:36:26;101885.63;;;5.67;84.32
52839;BME280;39219;53.678;9.856;2024-01-25T01:38:53;101886.50;;;5.68;84.19
52839;BME280;39219;53.678;9.856;2024-01-25T01:41:20;101882.06;;;5.74;84.27
52839;BME280;39219;53.678;9.856;2024-01-25T01:43:47;101881.13;;;5.84;84.23
52839;BME280;39219;53.678;9.856;2024-01-25T01:46:24;101895.19;;;5.82;84.15
52839;BME280;39219;53.678;9.856;2024-01-25T01:48:55;101896.91;;;5.92;84.20
52839;BME280;39219;53.678;9.856;2024-01-25T01:51:22;101909.16;;;6.00;83.99
52839;BME280;39219;53.678;9.856;2024-01-25T01:53:49;101910.91;;;6.04;83.67
52839;BME280;39219;53.678;9.856;2024-01-25T01:56:16;101923.22;;;6.04;83.21
52839;BME280;39219;53.678;9.856;2024-01-25T01:58:45;101924.09;;;6.04;83.55
52839;BME280;39219;53.678;9.856;2024-01-25T02:01:13;101922.31;;;6.05;83.32
52839;BME280;39219;53.678;9.856;2024-01-25T02:03:40;101936.44;;;6.01;83.18
52839;BME280;39219;53.678;9.856;2024-01-25T02:06:07;101938.22;;;5.97;83.27
52839;BME280;39219;53.678;9.856;2024-01-25T02:08:33;101940.84;;;5.99;83.41
52839;BME280;39219;53.678;9.856;2024-01-25T02:11:00;101941.72;;;6.04;82.95
52839;BME280;39219;53.678;9.856;2024-01-25T02:13:26;101936.38;;;6.10;83.22
52839;BME280;39219;53.678;9.856;2024-01-25T02:15:54;101938.13;;;6.11;83.12
52839;BME280;39219;53.678;9.856;2024-01-25T02:18:21;101931.03;;;6.16;82.90
52839;BME280;39219;53.678;9.856;2024-01-25T02:20:47;101942.44;;;6.21;83.30
52839;BME280;39219;53.678;9.856;2024-01-25T02:23:15;101942.34;;;6.30;82.98
52839;BME280;39219;53.678;9.856;2024-01-25T02:25:42;101945.91;;;6.29;82.81
52839;BME280;39219;53.678;9.856;2024-01-25T02:28:08;101945.84;;;6.32;82.79
52839;BME280;39219;53.678;9.856;2024-01-25T02:30:35;101945.91;;;6.27;83.04
52839;BME280;39219;53.678;9.856;2024-01-25T02:33:01;101959.94;;;6.32;82.65
52839;BME280;39219;53.678;9.856;2024-01-25T02:35:28;101955.53;;;6.35;82.89
52839;BME280;39219;53.678;9.856;2024-01-25T02:37:54;101957.28;;;6.37;82.68
52839;BME280;39219;53.678;9.856;2024-01-25T02:40:22;101977.56;;;6.34;82.59
52839;BME280;39219;53.678;9.856;2024-01-25T02:42:48;101966.97;;;6.35;82.59
52839;BME280;39219;53.678;9.856;2024-01-25T02:45:15;101976.63;;;6.39;82.87
52839;BME280;39219;53.678;9.856;2024-01-25T02:47:41;101981.94;;;6.38;82.79
52839;BME280;39219;53.678;9.856;2024-01-25T02:50:09;101982.81;;;6.40;82.64
52839;BME280;39219;53.678;9.856;2024-01-25T02:52:35;101989.81;;;6.41;82.41
52839;BME280;39219;53.678;9.856;2024-01-25T02:55:02;101980.16;;;6.38;82.71
52839;BME280;39219;53.678;9.856;2024-01-25T02:57:30;101979.28;;;6.39;82.76
52839;BME280;39219;53.678;9.856;2024-01-25T02:59:57;101952.88;;;6.35;82.61
52839;BME280;39219;53.678;9.856;2024-01-25T03:02:23;101978.41;;;6.34;82.67
52839;BME280;39219;53.678;9.856;2024-01-25T03:04:50;101975.81;;;6.31;82.99
52839;BME280;39219;53.678;9.856;2024-01-25T03:07:16;101981.97;;;6.30;83.06
52839;BME280;39219;53.678;9.856;2024-01-25T03:09:43;101971.41;;;6.30;82.95
52839;BME280;39219;53.678;9.856;2024-01-25T03:12:10;101971.41;;;6.30;82.90
52839;BME280;39219;53.678;9.856;2024-01-25T03:14:38;101978.41;;;6.34;82.77
52839;BME280;39219;53.678;9.856;2024-01-25T03:17:04;101980.19;;;6.35;82.82
52839;BME280;39219;53.678;9.856;2024-01-25T03:19:31;101980.19;;;6.35;82.86
52839;BME280;39219;53.678;9.856;2024-01-25T03:21:57;101990.75;;;6.35;82.78
52839;BME280;39219;53.678;9.856;2024-01-25T03:24:26;101990.72;;;6.40;82.91
52839;BME280;39219;53.678;9.856;2024-01-25T03:26:52;101994.28;;;6.37;82.98
52839;BME280;39219;53.678;9.856;2024-01-25T03:29:19;102000.44;;;6.36;82.51
52839;BME280;39219;53.678;9.856;2024-01-25T03:31:47;102007.50;;;6.34;83.07
52839;BME280;39219;53.678;9.856;2024-01-25T03:34:13;102007.56;;;6.26;82.95
52839;BME280;39219;53.678;9.856;2024-01-25T03:36:40;102015.53;;;6.19;82.73
52839;BME280;39219;53.678;9.856;2024-01-25T03:39:06;102023.53;;;6.11;82.93
52839;BME280;39219;53.678;9.856;2024-01-25T03:41:33;102025.25;;;6.12;83.23
52839;BME280;39219;53.678;9.856;2024-01-25T03:43:59;102027.06;;;6.12;83.35
52839;BME280;39219;53.678;9.856;2024-01-25T03:46:26;102027.97;;;6.03;83.42
52839;BME280;39219;53.678;9.856;2024-01-25T03:48:54;102023.63;;;5.96;83.45
52839;BME280;39219;53.678;9.856;2024-01-25T03:51:20;102031.59;;;5.81;83.63
52839;BME280;39219;53.678;9.856;2024-01-25T03:53:49;102036.00;;;5.88;84.32
52839;BME280;39219;53.678;9.856;2024-01-25T03:56:15;102040.34;;;6.00;84.29
52839;BME280;39219;53.678;9.856;2024-01-25T03:58:42;102025.34;;;6.03;84.08
52839;BME280;39219;53.678;9.856;2024-01-25T04:01:09;102043.00;;;5.98;84.26
52839;BME280;39219;53.678;9.856;2024-01-25T04:03:35;102042.09;;;5.98;84.56
52839;BME280;39219;53.678;9.856;2024-01-25T04:06:03;102028.84;;;6.05;84.51
52839;BME280;39219;53.678;9.856;2024-01-25T04:08:30;102042.03;;;6.07;84.31
52839;BME280;39219;53.678;9.856;2024-01-25T04:10:56;102040.31;;;6.04;84.55
52839;BME280;39219;53.678;9.856;2024-01-25T04:13:23;102050.91;;;5.95;84.22
52839;BME280;39219;53.678;9.856;2024-01-25T04:15:50;102061.50;;;5.94;84.57
52839;BME280;39219;53.678;9.856;2024-01-25T04:18:17;102065.94;;;5.89;84.72
52839;BME280;39219;53.678;9.856;2024-01-25T04:20:43;102071.22;;;5.83;84.67
52839;BME280;39219;53.678;9.856;2024-01-25T04:23:11;102072.09;;;5.83;84.90
52839;BME280;39219;53.678;9.856;2024-01-25T04:25:38;102083.56;;;5.79;84.84
52839;BME280;39219;53.678;9.856;2024-01-25T04:28:05;102092.38;;;5.68;85.03
52839;BME280;39219;53.678;9.856;2024-01-25T04:30:31;102087.13;;;5.63;85.47
52839;BME280;39219;53.678;9.856;2024-01-25T04:32:58;102079.22;;;5.57;85.44
52839;BME280;39219;53.678;9.856;2024-01-25T04:35:24;102093.31;;;5.59;85.53
52839;BME280;39219;53.678;9.856;2024-01-25T04:37:51;102096.81;;;5.60;85.45
52839;BME280;39219;53.678;9.856;2024-01-25T04:40:19;102096.81;;;5.61;85.61
52839;BME280;39219;53.678;9.856;2024-01-25T04:42:45;102091.56;;;5.54;85.79
52839;BME280;39219;53.678;9.856;2024-01-25T04:45:11;102101.22;;;5.50;85.88
52839;BME280;39219;53.678;9.856;2024-01-25T04:47:38;102109.16;;;5.50;86.31
52839;BME280;39219;53.678;9.856;2024-01-25T04:50:05;102096.91;;;5.40;86.35
52839;BME280;39219;53.678;9.856;2024-01-25T04:52:32;102095.13;;;5.37;86.34
52839;BME280;39219;53.678;9.856;2024-01-25T04:54:58;102092.53;;;5.28;86.55
52839;BME280;39219;53.678;9.856;2024-01-25T04:57:26;102107.47;;;5.26;86.43
52839;BME280;39219;53.678;9.856;2024-01-25T04:59:52;102118.91;;;5.28;86.78
52839;BME280;39219;53.678;9.856;2024-01-25T05:02:19;102100.44;;;5.22;86.91
52839;BME280;39219;53.678;9.856;2024-01-25T05:04:45;102110.13;;;5.16;86.85
52839;BME280;39219;53.678;9.856;2024-01-25T05:07:12;102111.88;;;5.20;87.07
52839;BME280;39219;53.678;9.856;2024-01-25T05:09:38;102119.78;;;5.21;87.30
52839;BME280;39219;53.678;9.856;2024-01-25T05:12:05;102118.91;;;5.12;87.12
52839;BME280;39219;53.678;9.856;2024-01-25T05:14:33;102127.72;;;5.11;87.32
52839;BME280;39219;53.678;9.856;2024-01-25T05:17:00;102129.50;;;5.03;87.67
52839;BME280;39219;53.678;9.856;2024-01-25T05:19:26;102139.13;;;4.99;87.31
52839;BME280;39219;53.678;9.856;2024-01-25T05:21:52;102143.53;;;5.06;87.60
52839;BME280;39219;53.678;9.856;2024-01-25T05:24:19;102148.81;;;5.02;87.78
52839;BME280;39219;53.678;9.856;2024-01-25T05:26:45;102153.22;;;5.10;87.94
52839;BME280;39219;53.678;9.856;2024-01-25T05:29:12;102152.31;;;5.19;87.88
52839;BME280;39219;53.678;9.856;2024-01-25T05:31:40;102161.09;;;5.21;87.79
52839;BME280;39219;53.678;9.856;2024-01-25T05:34:06;102168.13;;;5.34;87.97
52839;BME280;39219;53.678;9.856;2024-01-25T05:36:33;102159.31;;;5.35;87.69
52839;BME280;39219;53.678;9.856;2024-01-25T05:38:59;102162.84;;;5.25;87.59
52839;BME280;39219;53.678;9.856;2024-01-25T05:41:25;102179.56;;;5.27;87.75
52839;BME280;39219;53.678;9.856;2024-01-25T05:43:52;102183.09;;;5.30;88.00
52839;BME280;39219;53.678;9.856;2024-01-25T05:46:19;102195.38;;;5.33;87.60
52839;BME280;39219;53.678;9.856;2024-01-25T05:48:47;102193.59;;;5.42;87.73
52839;BME280;39219;53.678;9.856;2024-01-25T05:51:14;102194.47;;;5.58;88.24
52839;BME280;39219;53.678;9.856;2024-01-25T05:53:40;102205.88;;;5.68;87.81
52839;BME280;39219;53.678;9.856;2024-01-25T05:56:07;102201.50;;;5.65;87.93
52839;BME280;39219;53.678;9.856;2024-01-25T05:58:33;102199.72;;;5.69;87.56
52839;BME280;39219;53.678;9.856;2024-01-25T06:01:00;102201.47;;;5.70;87.71
52839;BME280;39219;53.678;9.856;2024-01-25T06:03:26;102198.81;;;5.76;86.99
52839;BME280;39219;53.678;9.856;2024-01-25T06:05:54;102190.91;;;5.83;87.03
52839;BME280;39219;53.678;9.856;2024-01-25T06:08:21;102219.06;;;5.86;86.62
52839;BME280;39219;53.678;9.856;2024-01-25T06:10:47;102205.88;;;5.90;86.72
52839;BME280;39219;53.678;9.856;2024-01-25T06:13:14;102210.25;;;5.90;86.54
52839;BME280;39219;53.678;9.856;2024-01-25T06:15:41;102215.53;;;5.90;86.58
52839;BME280;39219;53.678;9.856;2024-01-25T06:18:07;102208.53;;;5.89;86.28
52839;BME280;39219;53.678;9.856;2024-01-25T06:20:34;102208.53;;;5.89;85.96
52839;BME280;39219;53.678;9.856;2024-01-25T06:23:01;102216.44;;;5.89;86.21
52839;BME280;39219;53.678;9.856;2024-01-25T06:25:28;102211.13;;;5.92;86.12
52839;BME280;39219;53.678;9.856;2024-01-25T06:27:56;102219.94;;;5.92;86.14
52839;BME280;39219;53.678;9.856;2024-01-25T06:30:23;102216.41;;;5.92;86.03
52839;BME280;39219;53.678;9.856;2024-01-25T06:32:50;102221.69;;;5.92;85.96
52839;BME280;39219;53.678;9.856;2024-01-25T06:35:16;102218.16;;;5.97;85.84
52839;BME280;39219;53.678;9.856;2024-01-25T06:37:43;102212.03;;;5.88;85.95
52839;BME280;39219;53.678;9.856;2024-01-25T06:40:11;102226.13;;;5.88;85.91
52839;BME280;39219;53.678;9.856;2024-01-25T06:42:37;102235.78;;;5.88;85.86
52839;BME280;39219;53.678;9.856;2024-01-25T06:45:04;102241.09;;;5.85;85.86
52839;BME280;39219;53.678;9.856;2024-01-25T06:47:31;102248.13;;;5.86;85.81
52839;BME280;39219;53.678;9.856;2024-01-25T06:49:57;102252.50;;;5.81;85.49
52839;BME280;39219;53.678;9.856;2024-01-25T06:52:23;102261.31;;;5.65;85.49
52839;BME280;39219;53.678;9.856;2024-01-25T06:54:50;102274.53;;;5.59;85.77
52839;BME280;39219;53.678;9.856;2024-01-25T06:57:18;102275.41;;;5.49;85.89
52839;BME280;39219;53.678;9.856;2024-01-25T06:59:43;102289.47;;;5.51;86.21
52839;BME280;39219;53.678;9.856;2024-01-25T07:02:10;102297.41;;;5.60;86.12
52839;BME280;39219;53.678;9.856;2024-01-25T07:04:37;102306.22;;;5.62;86.43
52839;BME280;39219;53.678;9.856;2024-01-25T07:07:05;102312.34;;;5.68;86.56
52839;BME280;39219;53.678;9.856;2024-01-25T07:09:32;102320.28;;;5.73;86.47
52839;BME280;39219;53.678;9.856;2024-01-25T07:11:58;102320.28;;;5.77;85.94
52839;BME280;39219;53.678;9.856;2024-01-25T07:14:26;102314.09;;;5.80;85.97
52839;BME280;39219;53.678;9.856;2024-01-25T07:16:53;102321.16;;;5.82;85.97
52839;BME280;39219;53.678;9.856;2024-01-25T07:19:19;102318.50;;;5.78;85.78
52839;BME280;39219;53.678;9.856;2024-01-25T07:21:47;102325.53;;;5.74;86.11
52839;BME280;39219;53.678;9.856;2024-01-25T07:24:13;102335.22;;;5.72;86.00
52839;BME280;39219;53.678;9.856;2024-01-25T07:26:40;102333.47;;;5.74;86.09
52839;BME280;39219;53.678;9.856;2024-01-25T07:29:06;102337.00;;;5.73;86.10
52839;BME280;39219;53.678;9.856;2024-01-25T07:31:34;102340.53;;;5.75;85.97
52839;BME280;39219;53.678;9.856;2024-01-25T07:34:01;102344.03;;;5.80;86.07
52839;BME280;39219;53.678;9.856;2024-01-25T07:36:27;102344.94;;;5.84;86.05
52839;BME280;39219;53.678;9.856;2024-01-25T07:38:54;102351.06;;;5.83;85.89
52839;BME280;39219;53.678;9.856;2024-01-25T07:41:22;102351.06;;;5.81;86.17
52839;BME280;39219;53.678;9.856;2024-01-25T07:43:48;102357.25;;;5.89;86.17
52839;BME280;39219;53.678;9.856;2024-01-25T07:46:14;102343.16;;;5.92;86.29
52839;BME280;39219;53.678;9.856;2024-01-25T07:48:42;102346.69;;;5.98;86.05
52839;BME280;39219;53.678;9.856;2024-01-25T07:51:12;102346.69;;;5.97;85.95
52839;BME280;39219;53.678;9.856;2024-01-25T07:53:38;102357.25;;;6.00;86.00
52839;BME280;39219;53.678;9.856;2024-01-25T07:56:06;102361.66;;;6.04;86.02
52839;BME280;39219;53.678;9.856;2024-01-25T07:58:33;102361.63;;;6.01;86.02
52839;BME280;39219;53.678;9.856;2024-01-25T08:01:02;102359.88;;;6.03;85.64
52839;BME280;39219;53.678;9.856;2024-01-25T08:03:29;102359.00;;;6.05;85.57
52839;BME280;39219;53.678;9.856;2024-01-25T08:05:57;102364.28;;;6.10;85.83
52839;BME280;39219;53.678;9.856;2024-01-25T08:08:23;102371.31;;;6.11;85.67
52839;BME280;39219;53.678;9.856;2024-01-25T08:10:49;102366.03;;;6.17;85.61
52839;BME280;39219;53.678;9.856;2024-01-25T08:13:16;102369.53;;;6.14;85.69
52839;BME280;39219;53.678;9.856;2024-01-25T08:15:42;102358.09;;;6.18;85.64
52839;BME280;39219;53.678;9.856;2024-01-25T08:18:09;102358.97;;;6.19;85.54
52839;BME280;39219;53.678;9.856;2024-01-25T08:20:36;102366.03;;;6.21;85.55
52839;BME280;39219;53.678;9.856;2024-01-25T08:23:04;102357.22;;;6.24;85.31
52839;BME280;39219;53.678;9.856;2024-01-25T08:25:33;102366.91;;;6.23;85.30
52839;BME280;39219;53.678;9.856;2024-01-25T08:28:00;102365.13;;;6.28;84.98
52839;BME280;39219;53.678;9.856;2024-01-25T08:30:26;102366.88;;;6.31;85.34
52839;BME280;39219;53.678;9.856;2024-01-25T08:32:53;102365.13;;;6.33;85.13
52839;BME280;39219;53.678;9.856;2024-01-25T08:35:19;102372.16;;;6.40;84.97
52839;BME280;39219;53.678;9.856;2024-01-25T08:37:46;102377.44;;;6.45;84.68
52839;BME280;39219;53.678;9.856;2024-01-25T08:40:14;102373.91;;;6.53;84.63
52839;BME280;39219;53.678;9.856;2024-01-25T08:42:41;102383.56;;;6.54;84.72
52839;BME280;39219;53.678;9.856;2024-01-25T08:45:07;102382.66;;;6.66;84.35
52839;BME280;39219;53.678;9.856;2024-01-25T08:47:34;102371.19;;;6.68;83.87
52839;BME280;39219;53.678;9.856;2024-01-25T08:50:01;102379.09;;;6.76;84.17
52839;BME280;39219;53.678;9.856;2024-01-25T08:52:28;102383.50;;;6.78;83.68
52839;BME280;39219;53.678;9.856;2024-01-25T08:54:55;102395.84;;;6.73;83.72
52839;BME280;39219;53.678;9.856;2024-01-25T08:57:23;102384.41;;;6.70;83.63
52839;BME280;39219;53.678;9.856;2024-01-25T08:59:49;102383.53;;;6.72;83.36
52839;BME280;39219;53.678;9.856;2024-01-25T09:02:15;102383.53;;;6.66;83.36
52839;BME280;39219;53.678;9.856;2024-01-25T09:04:42;102385.31;;;6.63;83.60
52839;BME280;39219;53.678;9.856;2024-01-25T09:07:09;102384.44;;;6.67;83.65
52839;BME280;39219;53.678;9.856;2024-01-25T09:09:35;102379.09;;;6.71;83.68
52839;BME280;39219;53.678;9.856;2024-01-25T09:12:02;102377.31;;;6.73;83.67
52839;BME280;39219;53.678;9.856;2024-01-25T09:14:30;102374.69;;;6.78;83.54
52839;BME280;39219;53.678;9.856;2024-01-25T09:16:57;102381.72;;;6.80;83.42
52839;BME280;39219;53.678;9.856;2024-01-25T09:19:24;102396.72;;;6.80;83.71
52839;BME280;39219;53.678;9.856;2024-01-25T09:21:50;102397.59;;;6.77;83.28
52839;BME280;39219;53.678;9.856;2024-01-25T09:24:17;102401.09;;;6.79;83.11
52839;BME280;39219;53.678;9.856;2024-01-25T09:26:43;102406.41;;;6.78;83.34
52839;BME280;39219;53.678;9.856;2024-01-25T09:29:10;102409.03;;;6.88;83.48
52839;BME280;39219;53.678;9.856;2024-01-25T09:31:37;102417.81;;;6.95;83.35
52839;BME280;39219;53.678;9.856;2024-01-25T09:34:04;102427.50;;;6.94;83.06
52839;BME280;39219;53.678;9.856;2024-01-25T09:36:30;102422.22;;;6.91;83.04
52839;BME280;39219;53.678;9.856;2024-01-25T09:38:57;102427.50;;;6.93;83.03
52839;BME280;39219;53.678;9.856;2024-01-25T09:41:24;102433.66;;;6.95;83.00
52839;BME280;39219;53.678;9.856;2024-01-25T09:43:50;102432.78;;;7.03;82.86
52839;BME280;39219;53.678;9.856;2024-01-25T09:46:17;102443.34;;;7.00;82.53
52839;BME280;39219;53.678;9.856;2024-01-25T09:48:45;102449.53;;;6.99;82.76
52839;BME280;39219;53.678;9.856;2024-01-25T09:51:13;102451.28;;;7.00;82.60
52839;BME280;39219;53.678;9.856;2024-01-25T09:53:40;102456.56;;;7.05;82.46
52839;BME280;39219;53.678;9.856;2024-01-25T09:56:08;102456.59;;;6.97;82.57
52839;BME280;39219;53.678;9.856;2024-01-25T09:58:37;102459.25;;;6.91;82.26
52839;BME280;39219;53.678;9.856;2024-01-25T10:01:07;102449.56;;;6.92;82.51
52839;BME280;39219;53.678;9.856;2024-01-25T10:03:35;102453.97;;;6.93;82.69
52839;BME280;39219;53.678;9.856;2024-01-25T10:06:03;102455.69;;;7.04;82.69
52839;BME280;39219;53.678;9.856;2024-01-25T10:08:31;102453.06;;;7.06;82.40
52839;BME280;39219;53.678;9.856;2024-01-25T10:10:58;102467.13;;;7.11;82.23
52839;BME280;39219;53.678;9.856;2024-01-25T10:13:25;102462.69;;;7.14;82.01
52839;BME280;39219;53.678;9.856;2024-01-25T10:15:52;102475.88;;;7.27;82.12
52839;BME280;39219;53.678;9.856;2024-01-25T10:18:19;102486.50;;;7.24;81.97
52839;BME280;39219;53.678;9.856;2024-01-25T10:20:46;102483.84;;;7.25;81.62
52839;BME280;39219;53.678;9.856;2024-01-25T10:23:14;102482.97;;;7.25;81.56
52839;BME280;39219;53.678;9.856;2024-01-25T10:25:41;102490.03;;;7.19;80.88
52839;BME280;39219;53.678;9.856;2024-01-25T10:28:07;102489.16;;;7.14;81.30
52839;BME280;39219;53.678;9.856;2024-01-25T10:30:35;102496.19;;;7.26;81.02
52839;BME280;39219;53.678;9.856;2024-01-25T10:33:02;102488.25;;;7.29;80.85
52839;BME280;39219;53.678;9.856;2024-01-25T10:35:30;102483.78;;;7.39;80.95
52839;BME280;39219;53.678;9.856;2024-01-25T10:37:57;102481.97;;;7.44;80.55
52839;BME280;39219;53.678;9.856;2024-01-25T10:40:27;102474.94;;;7.44;80.23
52839;BME280;39219;53.678;9.856;2024-01-25T10:42:54;102464.31;;;7.47;80.11
52839;BME280;39219;53.678;9.856;2024-01-25T10:45:20;102463.41;;;7.50;80.56
52839;BME280;39219;53.678;9.856;2024-01-25T10:47:48;102464.28;;;7.52;79.63
52839;BME280;39219;53.678;9.856;2024-01-25T10:50:15;102466.94;;;7.47;79.06
52839;BME280;39219;53.678;9.856;2024-01-25T10:52:42;102474.88;;;7.56;79.33
52839;BME280;39219;53.678;9.856;2024-01-25T10:55:09;102481.94;;;7.56;79.44
52839;BME280;39219;53.678;9.856;2024-01-25T10:57:42;102477.53;;;7.50;79.13
52839;BME280;39219;53.678;9.856;2024-01-25T11:00:10;102487.25;;;7.53;78.87
52839;BME280;39219;53.678;9.856;2024-01-25T11:02:38;102483.66;;;7.57;78.98
52839;BME280;39219;53.678;9.856;2024-01-25T11:05:08;102486.34;;;7.55;78.44
52839;BME280;39219;53.678;9.856;2024-01-25T11:07:41;102478.38;;;7.57;78.27
52839;BME280;39219;53.678;9.856;2024-01-25T11:10:12;102483.72;;;7.48;77.98
52839;BME280;39219;53.678;9.856;2024-01-25T11:12:48;102500.53;;;7.42;77.75
52839;BME280;39219;53.678;9.856;2024-01-25T11:15:17;102497.00;;;7.36;78.31
52839;BME280;39219;53.678;9.856;2024-01-25T11:17:50;102490.81;;;7.41;77.91
52839;BME280;39219;53.678;9.856;2024-01-25T11:20:20;102498.75;;;7.40;77.96
52839;BME280;39219;53.678;9.856;2024-01-25T11:22:47;102493.50;;;7.28;78.11
52839;BME280;39219;53.678;9.856;2024-01-25T11:25:18;102495.31;;;7.22;78.38
52839;BME280;39219;53.678;9.856;2024-01-25T11:27:45;102495.31;;;7.24;78.57
52839;BME280;39219;53.678;9.856;2024-01-25T11:30:14;102489.16;;;7.19;78.40
52839;BME280;39219;53.678;9.856;2024-01-25T11:32:41;102484.75;;;7.19;78.96
52839;BME280;39219;53.678;9.856;2024-01-25T11:35:09;102478.53;;;7.22;79.09
52839;BME280;39219;53.678;9.856;2024-01-25T11:37:38;102482.97;;;7.20;79.42
52839;BME280;39219;53.678;9.856;2024-01-25T11:40:06;102477.66;;;7.26;79.78
52839;BME280;39219;53.678;9.856;2024-01-25T11:42:33;102482.03;;;7.36;79.85
52839;BME280;39219;53.678;9.856;2024-01-25T11:44:59;102484.63;;;7.45;79.85
52839;BME280;39219;53.678;9.856;2024-01-25T11:47:27;102479.25;;;7.57;79.57
52839;BME280;39219;53.678;9.856;2024-01-25T11:49:53;102478.28;;;7.75;79.75
52839;BME280;39219;53.678;9.856;2024-01-25T11:52:20;102469.41;;;7.80;79.40
52839;BME280;39219;53.678;9.856;2024-01-25T11:54:46;102468.53;;;7.80;79.22
52839;BME280;39219;53.678;9.856;2024-01-25T11:57:13;102473.81;;;7.81;79.07
52839;BME280;39219;53.678;9.856;2024-01-25T11:59:39;102480.09;;;7.67;78.94
52839;BME280;39219;53.678;9.856;2024-01-25T12:02:06;102470.38;;;7.69;79.01
52839;BME280;39219;53.678;9.856;2024-01-25T12:04:34;102471.31;;;7.57;78.89
52839;BME280;39219;53.678;9.856;2024-01-25T12:07:01;102473.16;;;7.45;78.90
52839;BME280;39219;53.678;9.856;2024-01-25T12:09:27;102473.16;;;7.43;79.13
52839;BME280;39219;53.678;9.856;2024-01-25T12:11:54;102476.69;;;7.47;79.48
52839;BME280;39219;53.678;9.856;2024-01-25T12:14:20;102483.72;;;7.48;79.22
52839;BME280;39219;53.678;9.856;2024-01-25T12:16:47;102481.97;;;7.47;79.47
52839;BME280;39219;53.678;9.856;2024-01-25T12:19:14;102470.53;;;7.39;79.55
52839;BME280;39219;53.678;9.856;2024-01-25T12:21:44;102468.81;;;7.33;79.53
52839;BME280;39219;53.678;9.856;2024-01-25T12:24:11;102470.53;;;7.36;79.85
52839;BME280;39219;53.678;9.856;2024-01-25T12:26:38;102478.47;;;7.36;80.33
52839;BME280;39219;53.678;9.856;2024-01-25T12:29:05;102474.03;;;7.47;80.36
52839;BME280;39219;53.678;9.856;2024-01-25T12:31:33;102476.69;;;7.44;80.19
52839;BME280;39219;53.678;9.856;2024-01-25T12:34:00;102470.50;;;7.43;80.23
52839;BME280;39219;53.678;9.856;2024-01-25T12:36:27;102482.00;;;7.42;80.09
52839;BME280;39219;53.678;9.856;2024-01-25T12:38:54;102481.16;;;7.34;80.39
52839;BME280;39219;53.678;9.856;2024-01-25T12:41:21;102489.09;;;7.33;80.56
52839;BME280;39219;53.678;9.856;2024-01-25T12:43:48;102491.72;;;7.36;80.73
52839;BME280;39219;53.678;9.856;2024-01-25T12:46:14;102490.84;;;7.37;80.95
52839;BME280;39219;53.678;9.856;2024-01-25T12:48:40;102485.50;;;7.50;80.89
52839;BME280;39219;53.678;9.856;2024-01-25T12:51:07;102490.78;;;7.46;80.59
52839;BME280;39219;53.678;9.856;2024-01-25T12:53:33;102472.25;;;7.50;80.60
52839;BME280;39219;53.678;9.856;2024-01-25T12:56:01;102478.38;;;7.60;80.96
52839;BME280;39219;53.678;9.856;2024-01-25T12:58:28;102483.69;;;7.58;80.46